Canton, Minnesota
Current Conditions -  °F | °C
As of 12:35 AM on Wednesday 26 Nov 2014 (Local Time) from KFKA Reporting Station
Broken Clouds Broken Clouds  
Wind Chill:   Ceiling: 6000
Heat Index: 16°   Visibility: 10mi
Dew Point: 12°   Wind: 5mph
Humidity: 86%   Direction: 130°SE
Pressure: 30.04"   Gusts: NA
Location:  43.53°N, 91.93°W
Report Text: KFKA 260635Z AUTO 13004KT 10SM BKN060 M09/M11 A3004 RMK AO2 T10901110
Loading
Personal Weather Stations






























Interactive Weather Map New forecast layout! Learn more

10-Day Weather Forecast

Advertisements
Track Severe Weather on mobile